PWSweather.com
Personal Weather Stations
Station Observations

BunburyAU

Lat: -33.378333, Lon: 115.651667

Elevation: 95

Station Type: Fine Offset WH2081

http://www.sedgleymanor.com/wx/index.htm

Latest ConditionsUpdated 11:45:01 PM GMT+08:08 Saturday, Apr 25, 2015
Currently Today's Max Today's Min Today's Average
Temperature 53.4°F11.9°C 75.4°F24.1°C 49.6°F9.8°C 59.7°F15.4°C
Dew Point 45.0°F7.2°C 49.1°F9.5°C 41.6°F5.3°C 46.1°F7.8°C
Winds 3.1 mph ESE5.0 kmh ESE 6.5 mph NE10.5 kmh NE - 3.5 mph 5.6 kmh
Wind Gusts 6.0 mph9.7 kmh 16.8 mph27.0 kmh - -
Humidity 73% 89% 32% 64%
Pressure 30.27 in1025.1 mb 30.36 in1028.1 mb 30.22 in1023.4 mb -
Hour Temp Dew Point Humidity Winds Wind Gusts Pressure Precip Precip Rate Daily Precip Total
11:45 PM 53.4°F11.9°C 45.0°F7.2°C 73% 3.1 mph ESE5.0 kmh ESE 6.0 mph9.7 kmh 30.27 in1025.1 mb 0.00 in0.0 mm 0.00 in0.0 mm 0.00 in0.0 mm
11:30 PM 52.9°F11.6°C 44.5°F6.9°C 73% 3.2 mph ESE5.1 kmh ESE 6.9 mph11.1 kmh 30.27 in1025.1 mb 0.00 in0.0 mm 0.00 in0.0 mm 0.00 in0.0 mm
11:15 PM 52.9°F11.6°C 44.1°F6.7°C 72% 2.9 mph ESE4.7 kmh ESE 6.9 mph11.1 kmh 30.27 in1025.1 mb 0.00 in0.0 mm 0.00 in0.0 mm 0.00 in0.0 mm
11:00 PM 53.8°F12.1°C 44.2°F6.8°C 70% 4.1 mph SE6.6 kmh SE 8.3 mph13.4 kmh 30.27 in1025.1 mb 0.00 in0.0 mm 0.00 in0.0 mm 0.00 in0.0 mm
10:45 PM 53.6°F12.0°C 44.4°F6.9°C 71% 3.4 mph SE5.5 kmh SE 6.9 mph11.1 kmh 30.28 in1025.4 mb 0.00 in0.0 mm 0.00 in0.0 mm 0.00 in0.0 mm
10:30 PM 53.8°F12.1°C 44.2°F6.8°C 70% 3.0 mph SE4.8 kmh SE 6.9 mph11.1 kmh 30.28 in1025.4 mb 0.00 in0.0 mm 0.00 in0.0 mm 0.00 in0.0 mm
10:15 PM 54.0°F12.2°C 44.4°F6.9°C 70% 2.6 mph SE4.2 kmh SE 5.4 mph8.7 kmh 30.29 in1025.7 mb 0.00 in0.0 mm 0.00 in0.0 mm 0.00 in0.0 mm
10:00 PM 54.3°F12.4°C 44.4°F6.9°C 69% 2.7 mph SE4.3 kmh SE 5.4 mph8.7 kmh 30.29 in1025.7 mb 0.00 in0.0 mm 0.00 in0.0 mm 0.00 in0.0 mm
09:45 PM 54.5°F12.5°C 44.5°F6.9°C 69% 2.4 mph SE3.9 kmh SE 6.0 mph9.7 kmh 30.29 in1025.7 mb 0.00 in0.0 mm 0.00 in0.0 mm 0.00 in0.0 mm
09:30 PM 54.9°F12.7°C 44.9°F7.2°C 69% 2.8 mph SE4.5 kmh SE 6.0 mph9.7 kmh 30.29 in1025.7 mb 0.00 in0.0 mm 0.00 in0.0 mm 0.00 in0.0 mm
09:15 PM 55.0°F12.8°C 45.1°F7.3°C 69% 2.5 mph SE4.0 kmh SE 5.4 mph8.7 kmh 30.29 in1025.7 mb 0.00 in0.0 mm 0.00 in0.0 mm 0.00 in0.0 mm
09:00 PM 55.2°F12.9°C 45.2°F7.3°C 69% 2.0 mph ESE3.2 kmh ESE 6.0 mph9.7 kmh 30.29 in1025.7 mb 0.00 in0.0 mm 0.00 in0.0 mm 0.00 in0.0 mm
08:45 PM 55.8°F13.2°C 45.0°F7.2°C 67% 2.6 mph SE4.2 kmh SE 6.0 mph9.7 kmh 30.28 in1025.4 mb 0.00 in0.0 mm 0.00 in0.0 mm 0.00 in0.0 mm
08:30 PM 56.5°F13.6°C 45.3°F7.4°C 66% 2.5 mph SE4.0 kmh SE 5.4 mph8.7 kmh 30.27 in1025.1 mb 0.00 in0.0 mm 0.00 in0.0 mm 0.00 in0.0 mm
08:15 PM 57.0°F13.9°C 45.8°F7.7°C 66% 2.5 mph SE4.0 kmh SE 6.0 mph9.7 kmh 30.27 in1025.1 mb 0.00 in0.0 mm 0.00 in0.0 mm 0.00 in0.0 mm
08:00 PM 57.6°F14.2°C 45.5°F7.5°C 64% 2.0 mph ESE3.2 kmh ESE 5.4 mph8.7 kmh 30.27 in1025.1 mb 0.00 in0.0 mm 0.00 in0.0 mm 0.00 in0.0 mm
07:45 PM 58.3°F14.6°C 45.8°F7.7°C 63% 2.3 mph ESE3.7 kmh ESE 5.4 mph8.7 kmh 30.27 in1025.1 mb 0.00 in0.0 mm 0.00 in0.0 mm 0.00 in0.0 mm
07:30 PM 58.8°F14.9°C 45.8°F7.7°C 62% 2.6 mph ESE4.2 kmh ESE 6.0 mph9.7 kmh 30.27 in1025.1 mb 0.00 in0.0 mm 0.00 in0.0 mm 0.00 in0.0 mm
07:15 PM 59.7°F15.4°C 45.8°F7.7°C 60% 2.9 mph SE4.7 kmh SE 6.0 mph9.7 kmh 30.26 in1024.7 mb 0.00 in0.0 mm 0.00 in0.0 mm 0.00 in0.0 mm
07:00 PM 60.3°F15.7°C 45.0°F7.2°C 57% 2.7 mph ESE4.3 kmh ESE 5.4 mph8.7 kmh 30.26 in1024.7 mb 0.00 in0.0 mm 0.00 in0.0 mm 0.00 in0.0 mm
06:45 PM 61.0°F16.1°C 44.2°F6.8°C 54% 3.0 mph ESE4.8 kmh ESE 7.6 mph12.2 kmh 30.25 in1024.4 mb 0.00 in0.0 mm 0.00 in0.0 mm 0.00 in0.0 mm
06:30 PM 61.5°F16.4°C 43.7°F6.5°C 52% 3.0 mph E4.8 kmh E 6.9 mph11.1 kmh 30.26 in1024.7 mb 0.00 in0.0 mm 0.00 in0.0 mm 0.00 in0.0 mm
06:15 PM 62.2°F16.8°C 43.9°F6.6°C 51% 2.5 mph SE4.0 kmh SE 6.0 mph9.7 kmh 30.25 in1024.4 mb 0.00 in0.0 mm 0.00 in0.0 mm 0.00 in0.0 mm
06:00 PM 63.1°F17.3°C 43.7°F6.5°C 49% 3.0 mph ESE4.8 kmh ESE 6.9 mph11.1 kmh 30.24 in1024.0 mb 0.00 in0.0 mm 0.00 in0.0 mm 0.00 in0.0 mm
05:45 PM 64.2°F17.9°C 44.1°F6.7°C 48% 3.2 mph E5.1 kmh E 7.6 mph12.2 kmh 30.24 in1024.0 mb 0.00 in0.0 mm 0.00 in0.0 mm 0.00 in0.0 mm
05:30 PM 65.5°F18.6°C 44.2°F6.8°C 46% 3.8 mph E6.1 kmh E 8.3 mph13.4 kmh 30.23 in1023.7 mb 0.00 in0.0 mm 0.00 in0.0 mm 0.00 in0.0 mm
05:15 PM 66.4°F19.1°C 43.8°F6.6°C 44% 4.4 mph E7.1 kmh E 9.2 mph14.8 kmh 30.23 in1023.7 mb 0.00 in0.0 mm 0.00 in0.0 mm 0.00 in0.0 mm
05:00 PM 67.5°F19.7°C 44.2°F6.8°C 43% 4.5 mph E7.2 kmh E 9.8 mph15.8 kmh 30.23 in1023.7 mb 0.00 in0.0 mm 0.00 in0.0 mm 0.00 in0.0 mm
04:45 PM 69.6°F20.9°C 44.3°F6.8°C 40% 4.8 mph E7.7 kmh E 11.4 mph18.3 kmh 30.22 in1023.4 mb 0.00 in0.0 mm 0.00 in0.0 mm 0.00 in0.0 mm
04:30 PM 71.1°F21.7°C 44.9°F7.2°C 39% 4.7 mph ESE7.6 kmh ESE 12.1 mph19.5 kmh 30.22 in1023.4 mb 0.00 in0.0 mm 0.00 in0.0 mm 0.00 in0.0 mm
04:15 PM 71.2°F21.8°C 44.4°F6.9°C 38% 5.3 mph E8.5 kmh E 12.1 mph19.5 kmh 30.22 in1023.4 mb 0.00 in0.0 mm 0.00 in0.0 mm 0.00 in0.0 mm
04:00 PM 71.4°F21.9°C 43.8°F6.6°C 37% 5.3 mph E8.5 kmh E 12.1 mph19.5 kmh 30.22 in1023.4 mb 0.00 in0.0 mm 0.00 in0.0 mm 0.00 in0.0 mm
03:45 PM 72.3°F22.4°C 42.4°F5.8°C 34% 5.0 mph E8.0 kmh E 10.7 mph17.2 kmh 30.22 in1023.4 mb 0.00 in0.0 mm 0.00 in0.0 mm 0.00 in0.0 mm
03:30 PM 71.8°F22.1°C 43.4°F6.3°C 36% 5.9 mph E9.5 kmh E 14.5 mph23.3 kmh 30.22 in1023.4 mb 0.00 in0.0 mm 0.00 in0.0 mm 0.00 in0.0 mm
03:15 PM 72.5°F22.5°C 43.3°F6.3°C 35% 5.9 mph E9.5 kmh E 13.6 mph21.9 kmh 30.23 in1023.7 mb 0.00 in0.0 mm 0.00 in0.0 mm 0.00 in0.0 mm
03:00 PM 71.6°F22.0°C 42.5°F5.8°C 35% 5.1 mph E8.2 kmh E 10.7 mph17.2 kmh 30.22 in1023.4 mb 0.00 in0.0 mm 0.00 in0.0 mm 0.00 in0.0 mm
02:45 PM 73.0°F22.8°C 42.3°F5.7°C 33% 5.0 mph NE8.0 kmh NE 11.4 mph18.3 kmh 30.22 in1023.4 mb 0.00 in0.0 mm 0.00 in0.0 mm 0.00 in0.0 mm
02:30 PM 75.0°F23.9°C 44.0°F6.7°C 33% 4.6 mph E7.4 kmh E 13.6 mph21.9 kmh 30.23 in1023.7 mb 0.00 in0.0 mm 0.00 in0.0 mm 0.00 in0.0 mm
02:15 PM 75.4°F24.1°C 43.5°F6.4°C 32% 4.7 mph ESE7.6 kmh ESE 11.4 mph18.3 kmh 30.23 in1023.7 mb 0.00 in0.0 mm 0.00 in0.0 mm 0.00 in0.0 mm
02:00 PM 73.4°F23.0°C 44.1°F6.7°C 35% 5.1 mph ENE8.2 kmh ENE 7.6 mph12.2 kmh 30.27 in1025.1 mb 0.00 in0.0 mm 0.00 in0.0 mm 0.00 in0.0 mm
01:59 PM 52.5°F11.4°C 46.5°F8.1°C 80% 2.3 mph SE3.7 kmh SE 4.5 mph7.2 kmh 30.34 in1027.4 mb 0.00 in0.0 mm 0.00 in0.0 mm 0.00 in0.0 mm
01:58 PM 54.1°F12.3°C 46.0°F7.8°C 74% 0.7 mph SE1.1 kmh SE 2.2 mph3.5 kmh 30.30 in1026.1 mb 0.00 in0.0 mm 0.00 in0.0 mm 0.00 in0.0 mm
01:57 PM 56.7°F13.7°C 45.8°F7.7°C 67% 3.9 mph E6.3 kmh E 9.2 mph14.8 kmh 30.30 in1026.1 mb 0.00 in0.0 mm 0.00 in0.0 mm 0.00 in0.0 mm
01:55 PM 73.0°F22.8°C 42.2°F5.7°C 33% 5.3 mph E8.5 kmh E 9.8 mph15.8 kmh 30.23 in1023.7 mb 0.00 in0.0 mm 0.00 in0.0 mm 0.00 in0.0 mm
01:50 PM 72.1°F22.3°C 42.2°F5.7°C 34% 5.8 mph SE9.3 kmh SE 9.8 mph15.8 kmh 30.23 in1023.7 mb 0.00 in0.0 mm 0.00 in0.0 mm 0.00 in0.0 mm
12:00 PM 71.8°F22.1°C 44.8°F7.1°C 38% 4.5 mph ENE7.2 kmh ENE 9.8 mph15.8 kmh 30.29 in1025.7 mb 0.00 in0.0 mm 0.00 in0.0 mm 0.00 in0.0 mm
11:45 AM 71.2°F21.8°C 45.0°F7.2°C 39% 5.3 mph E8.5 kmh E 13.0 mph20.9 kmh 30.30 in1026.1 mb 0.00 in0.0 mm 0.00 in0.0 mm 0.00 in0.0 mm
11:30 AM 70.0°F21.1°C 43.9°F6.6°C 39% 6.5 mph NE10.5 kmh NE 13.6 mph21.9 kmh 30.30 in1026.1 mb 0.00 in0.0 mm 0.00 in0.0 mm 0.00 in0.0 mm
11:15 AM 70.7°F21.5°C 45.2°F7.3°C 40% 3.9 mph E6.3 kmh E 11.4 mph18.3 kmh 30.31 in1026.4 mb 0.00 in0.0 mm 0.00 in0.0 mm 0.00 in0.0 mm
11:00 AM 70.0°F21.1°C 46.5°F8.1°C 43% 5.0 mph E8.0 kmh E 13.6 mph21.9 kmh 30.32 in1026.8 mb 0.00 in0.0 mm 0.00 in0.0 mm 0.00 in0.0 mm
10:45 AM 70.0°F21.1°C 46.5°F8.1°C 43% 5.4 mph NE8.7 kmh NE 13.0 mph20.9 kmh 30.32 in1026.8 mb 0.00 in0.0 mm 0.00 in0.0 mm 0.00 in0.0 mm
10:30 AM 68.9°F20.5°C 47.3°F8.5°C 46% 4.5 mph NE7.2 kmh NE 13.0 mph20.9 kmh 30.32 in1026.8 mb 0.00 in0.0 mm 0.00 in0.0 mm 0.00 in0.0 mm
10:15 AM 67.8°F19.9°C 47.4°F8.6°C 48% 4.8 mph NE7.7 kmh NE 9.8 mph15.8 kmh 30.33 in1027.1 mb 0.00 in0.0 mm 0.00 in0.0 mm 0.00 in0.0 mm
10:00 AM 66.6°F19.2°C 47.9°F8.8°C 51% 6.2 mph E10.0 kmh E 11.4 mph18.3 kmh 30.33 in1027.1 mb 0.00 in0.0 mm 0.00 in0.0 mm 0.00 in0.0 mm
09:45 AM 66.4°F19.1°C 47.7°F8.7°C 51% 5.8 mph NE9.3 kmh NE 16.8 mph27.0 kmh 30.35 in1027.8 mb 0.00 in0.0 mm 0.00 in0.0 mm 0.00 in0.0 mm
09:30 AM 66.4°F19.1°C 47.7°F8.7°C 51% 4.8 mph NE7.7 kmh NE 13.0 mph20.9 kmh 30.35 in1027.8 mb 0.00 in0.0 mm 0.00 in0.0 mm 0.00 in0.0 mm
09:15 AM 64.4°F18.0°C 48.9°F9.4°C 57% 4.3 mph E6.9 kmh E 8.3 mph13.4 kmh 30.35 in1027.8 mb 0.00 in0.0 mm 0.00 in0.0 mm 0.00 in0.0 mm
09:00 AM 63.9°F17.7°C 48.8°F9.3°C 58% 4.4 mph E7.1 kmh E 9.8 mph15.8 kmh 30.35 in1027.8 mb 0.00 in0.0 mm 0.00 in0.0 mm 0.00 in0.0 mm
08:45 AM 62.8°F17.1°C 48.7°F9.3°C 60% 3.8 mph ENE6.1 kmh ENE 10.7 mph17.2 kmh 30.35 in1027.8 mb 0.00 in0.0 mm 0.00 in0.0 mm 0.00 in0.0 mm
08:30 AM 60.4°F15.8°C 47.8°F8.8°C 63% 4.7 mph E7.6 kmh E 12.1 mph19.5 kmh 30.35 in1027.8 mb 0.00 in0.0 mm 0.00 in0.0 mm 0.00 in0.0 mm
08:15 AM 59.0°F15.0°C 47.7°F8.7°C 66% 4.5 mph E7.2 kmh E 10.7 mph17.2 kmh 30.35 in1027.8 mb 0.00 in0.0 mm 0.00 in0.0 mm 0.00 in0.0 mm
08:00 AM 57.7°F14.3°C 48.8°F9.3°C 72% 3.8 mph E6.1 kmh E 7.6 mph12.2 kmh 30.35 in1027.8 mb 0.00 in0.0 mm 0.00 in0.0 mm 0.00 in0.0 mm
07:45 AM 53.8°F12.1°C 47.8°F8.8°C 80% 3.2 mph SE5.1 kmh SE 7.6 mph12.2 kmh 30.34 in1027.4 mb 0.00 in0.0 mm 0.00 in0.0 mm 0.00 in0.0 mm
07:30 AM 52.3°F11.3°C 46.0°F7.8°C 79% 2.6 mph ESE4.2 kmh ESE 7.6 mph12.2 kmh 30.33 in1027.1 mb 0.00 in0.0 mm 0.00 in0.0 mm 0.00 in0.0 mm
07:15 AM 52.7°F11.5°C 47.7°F8.7°C 83% 2.7 mph ESE4.3 kmh ESE 6.0 mph9.7 kmh 30.33 in1027.1 mb 0.00 in0.0 mm 0.00 in0.0 mm 0.00 in0.0 mm
07:00 AM 50.7°F10.4°C 47.3°F8.5°C 88% 2.7 mph ESE4.3 kmh ESE 6.9 mph11.1 kmh 30.32 in1026.8 mb 0.00 in0.0 mm 0.00 in0.0 mm 0.00 in0.0 mm
06:45 AM 49.8°F9.9°C 46.7°F8.2°C 89% 3.0 mph SE4.8 kmh SE 6.9 mph11.1 kmh 30.32 in1026.8 mb 0.00 in0.0 mm 0.00 in0.0 mm 0.00 in0.0 mm
06:30 AM 49.6°F9.8°C 46.2°F7.9°C 88% 2.1 mph SE3.4 kmh SE 4.5 mph7.2 kmh 30.32 in1026.8 mb 0.00 in0.0 mm 0.00 in0.0 mm 0.00 in0.0 mm
06:15 AM 50.2°F10.1°C 46.5°F8.1°C 87% 2.2 mph ESE3.5 kmh ESE 4.5 mph7.2 kmh 30.32 in1026.8 mb 0.00 in0.0 mm 0.00 in0.0 mm 0.00 in0.0 mm
06:00 AM 50.4°F10.2°C 46.6°F8.1°C 87% 2.2 mph ESE3.5 kmh ESE 5.4 mph8.7 kmh 30.31 in1026.4 mb 0.00 in0.0 mm 0.00 in0.0 mm 0.00 in0.0 mm
05:45 AM 50.4°F10.2°C 46.3°F7.9°C 86% 2.3 mph ESE3.7 kmh ESE 5.4 mph8.7 kmh 30.31 in1026.4 mb 0.00 in0.0 mm 0.00 in0.0 mm 0.00 in0.0 mm
05:30 AM 50.9°F10.5°C 46.9°F8.3°C 86% 2.6 mph ESE4.2 kmh ESE 4.5 mph7.2 kmh 30.31 in1026.4 mb 0.00 in0.0 mm 0.00 in0.0 mm 0.00 in0.0 mm
05:15 AM 51.1°F10.6°C 46.7°F8.2°C 85% 3.0 mph ESE4.8 kmh ESE 6.9 mph11.1 kmh 30.30 in1026.1 mb 0.00 in0.0 mm 0.00 in0.0 mm 0.00 in0.0 mm
05:00 AM 51.4°F10.8°C 47.1°F8.4°C 85% 3.4 mph SE5.5 kmh SE 9.2 mph14.8 kmh 30.30 in1026.1 mb 0.00 in0.0 mm 0.00 in0.0 mm 0.00 in0.0 mm
04:45 AM 51.4°F10.8°C 47.1°F8.4°C 85% 3.4 mph E5.5 kmh E 8.3 mph13.4 kmh 30.30 in1026.1 mb 0.00 in0.0 mm 0.00 in0.0 mm 0.00 in0.0 mm
04:30 AM 51.4°F10.8°C 46.8°F8.2°C 84% 2.5 mph SE4.0 kmh SE 5.4 mph8.7 kmh 30.30 in1026.1 mb 0.00 in0.0 mm 0.00 in0.0 mm 0.00 in0.0 mm
04:15 AM 51.8°F11.0°C 46.5°F8.1°C 82% 2.8 mph SE4.5 kmh SE 5.4 mph8.7 kmh 30.30 in1026.1 mb 0.00 in0.0 mm 0.00 in0.0 mm 0.00 in0.0 mm
04:00 AM 52.3°F11.3°C 46.7°F8.2°C 81% 3.3 mph SE5.3 kmh SE 6.9 mph11.1 kmh 30.30 in1026.1 mb 0.00 in0.0 mm 0.00 in0.0 mm 0.00 in0.0 mm
03:45 AM 52.9°F11.6°C 46.9°F8.3°C 80% 2.6 mph SE4.2 kmh SE 5.4 mph8.7 kmh 30.30 in1026.1 mb 0.00 in0.0 mm 0.00 in0.0 mm 0.00 in0.0 mm
03:30 AM 53.2°F11.8°C 46.9°F8.3°C 79% 2.9 mph ESE4.7 kmh ESE 6.0 mph9.7 kmh 30.29 in1025.7 mb 0.00 in0.0 mm 0.00 in0.0 mm 0.00 in0.0 mm
03:15 AM 53.4°F11.9°C 47.1°F8.4°C 79% 2.4 mph SE3.9 kmh SE 6.0 mph9.7 kmh 30.30 in1026.1 mb 0.00 in0.0 mm 0.00 in0.0 mm 0.00 in0.0 mm
03:00 AM 53.6°F12.0°C 46.2°F7.9°C 76% 1.7 mph SE2.7 kmh SE 3.8 mph6.1 kmh 30.30 in1026.1 mb 0.00 in0.0 mm 0.00 in0.0 mm 0.00 in0.0 mm
02:45 AM 54.0°F12.2°C 46.2°F7.9°C 75% 1.4 mph SE2.3 kmh SE 4.5 mph7.2 kmh 30.30 in1026.1 mb 0.00 in0.0 mm 0.00 in0.0 mm 0.00 in0.0 mm
02:30 AM 54.5°F12.5°C 46.0°F7.8°C 73% 1.6 mph SE2.6 kmh SE 3.8 mph6.1 kmh 30.30 in1026.1 mb 0.00 in0.0 mm 0.00 in0.0 mm 0.00 in0.0 mm
02:15 AM 54.9°F12.7°C 46.0°F7.8°C 72% 1.8 mph ESE2.9 kmh ESE 4.5 mph7.2 kmh 30.30 in1026.1 mb 0.00 in0.0 mm 0.00 in0.0 mm 0.00 in0.0 mm
02:00 AM 55.6°F13.1°C 46.3°F7.9°C 71% 2.2 mph E3.5 kmh E 4.5 mph7.2 kmh 30.30 in1026.1 mb 0.00 in0.0 mm 0.00 in0.0 mm 0.00 in0.0 mm
01:45 AM 55.9°F13.3°C 46.3°F7.9°C 70% 2.8 mph ESE4.5 kmh ESE 6.9 mph11.1 kmh 30.30 in1026.1 mb 0.00 in0.0 mm 0.00 in0.0 mm 0.00 in0.0 mm
01:30 AM 56.3°F13.5°C 46.3°F7.9°C 69% 3.2 mph ESE5.1 kmh ESE 6.9 mph11.1 kmh 30.30 in1026.1 mb 0.00 in0.0 mm 0.00 in0.0 mm 0.00 in0.0 mm
01:15 AM 56.5°F13.6°C 46.1°F7.8°C 68% 3.3 mph E5.3 kmh E 6.9 mph11.1 kmh 30.30 in1026.1 mb 0.00 in0.0 mm 0.00 in0.0 mm 0.00 in0.0 mm
01:00 AM 56.7°F13.7°C 45.8°F7.7°C 67% 3.3 mph E5.3 kmh E 9.2 mph14.8 kmh 30.30 in1026.1 mb 0.00 in0.0 mm 0.00 in0.0 mm 0.00 in0.0 mm
12:45 AM 56.7°F13.7°C 45.8°F7.7°C 67% 3.6 mph ESE5.8 kmh ESE 9.2 mph14.8 kmh 30.30 in1026.1 mb 0.00 in0.0 mm 0.00 in0.0 mm 0.00 in0.0 mm
12:30 AM 56.7°F13.7°C 45.8°F7.7°C 67% 3.6 mph ESE5.8 kmh ESE 7.6 mph12.2 kmh 30.30 in1026.1 mb 0.00 in0.0 mm 0.00 in0.0 mm 0.00 in0.0 mm
12:15 AM 56.8°F13.8°C 46.4°F8.0°C 68% 3.1 mph ESE5.0 kmh ESE 9.8 mph15.8 kmh 30.31 in1026.4 mb 0.00 in0.0 mm 0.00 in0.0 mm 0.00 in0.0 mm
12:00 AM 56.8°F13.8°C 46.4°F8.0°C 68% 3.5 mph E5.6 kmh E 7.6 mph12.2 kmh 30.31 in1026.4 mb 0.00 in0.0 mm 0.00 in0.0 mm 0.00 in0.0 mm